Stena Superior — ZCEF1 — position and weather

sailwx.info

Track history (hours):
 
Tides and Currents Weather Stations Pressure Air Temp Water Temp Dewpoint Dewpoint Depression Visibility Wind Speed Wind Dir Waves Ship Positions

Stena Superior

Last reported at 2017-Nov-17 21:36 UTC. Time now 2017-Nov-24 22:00 UTC.
Position N 33°54' W 118°27'.

Length 273 m; draft 15.5 m.

Type: Tanker. MMSI: 310620000.

Date/timePositionNaut miles runAvg speedWind from/ knotsBaromVisibWave heightAir tempDewpointWater temp
2017-Nov-17 21:36N 33°54' W 118°27'0 0.1
2017-Nov-17 21:30N 33°54' W 118°27'1 1.5
2017-Nov-17 20:53N 33°53' W 118°27'3 1.3
2017-Nov-17 18:59N 33°52' W 118°30'0 0.0
2017-Nov-17 18:30N 33°52' W 118°30'0 0.1
2017-Nov-17 17:59N 33°52' W 118°30'0 0.1
2017-Nov-17 17:30N 33°52' W 118°30'0 0.2
2017-Nov-17 16:59N 33°52' W 118°30'2 3.9
2017-Nov-17 16:30N 33°50' W 118°30'3 6.4
2017-Nov-17 16:00N 33°47' W 118°30'4 9.0
2017-Nov-17 15:30N 33°43' W 118°28'611.1
2017-Nov-17 14:58N 33°39' W 118°23'510.9
2017-Nov-17 14:29N 33°38' W 118°16'511.0
2017-Nov-17 14:00N 33°38' W 118°10'3 6.0
2017-Nov-17 13:30N 33°41' W 118°08'0 0.0
2017-Nov-17 02:23N 33°41' W 118°08'0 0.0
2017-Nov-16 15:41N 33°41' W 118°08'0 0.0
2017-Nov-16 15:29N 33°41' W 118°08'0 0.0
2017-Nov-16 14:59N 33°41' W 118°08'0 0.1
2017-Nov-16 14:17N 33°41' W 118°08'0 0.0
2017-Nov-16 13:47N 33°41' W 118°08'0 0.0
2017-Nov-16 13:29N 33°41' W 118°08'0 0.0
2017-Nov-16 12:59N 33°41' W 118°08'0 0.0
2017-Nov-16 11:53N 33°41' W 118°08'0 0.0
2017-Nov-16 11:29N 33°41' W 118°08'0 0.0
2017-Nov-16 10:53N 33°41' W 118°08'0 0.1
2017-Nov-16 10:29N 33°41' W 118°08'0 0.0
2017-Nov-16 04:35N 33°41' W 118°08'0 0.0
2017-Nov-16 04:23N 33°41' W 118°08'0 0.0
2017-Nov-16 03:59N 33°41' W 118°08'0 0.0
2017-Nov-16 03:29N 33°41' W 118°08'0 0.0
2017-Nov-16 02:59N 33°41' W 118°08'0 0.0
2017-Nov-16 02:29N 33°41' W 118°08'0 0.0
2017-Nov-16 01:41N 33°41' W 118°08'0 0.0
2017-Nov-16 01:11N 33°41' W 118°08'0 0.0
2017-Nov-16 00:59N 33°41' W 118°08'0 0.0
2017-Nov-16 00:17N 33°41' W 118°08'0 0.0
2017-Nov-15 23:59N 33°41' W 118°08'0 0.0
2017-Nov-15 23:29N 33°41' W 118°08'0 0.0
2017-Nov-15 22:59N 33°41' W 118°08'0 0.0
2017-Nov-15 22:29N 33°41' W 118°08'0 0.0
2017-Nov-15 21:53N 33°41' W 118°08'0 0.1
2017-Nov-15 21:29N 33°41' W 118°08'0 0.0
2017-Nov-15 18:35N 33°41' W 118°08'0 0.0
2017-Nov-15 18:29N 33°41' W 118°08'0 0.0
2017-Nov-15 15:47N 33°41' W 118°08'0 0.0
2017-Nov-15 14:05N 33°41' W 118°08'0 0.1
2017-Nov-15 13:59N 33°41' W 118°08'0 0.0
2017-Nov-15 13:29N 33°41' W 118°08'0 0.0
2017-Nov-15 12:53N 33°41' W 118°08'0 0.0
2017-Nov-15 12:29N 33°41' W 118°08'0 0.0
2017-Nov-15 11:59N 33°41' W 118°08'0 0.0
2017-Nov-14 23:23N 33°41' W 118°08'0 0.0
2017-Nov-14 20:53N 33°41' W 118°08'0 0.1
2017-Nov-14 20:29N 33°41' W 118°07'0 0.0
2017-Nov-14 19:53N 33°41' W 118°07'0 0.0
2017-Nov-14 14:11N 33°41' W 118°08'0 0.1
2017-Nov-14 13:47N 33°41' W 118°08'0 0.1
2017-Nov-14 13:29N 33°41' W 118°08'0 0.0
2017-Nov-14 12:59N 33°41' W 118°08'0 0.0
2017-Nov-14 10:41N 33°41' W 118°08'0 0.0
2017-Nov-14 10:29N 33°41' W 118°08'0 0.0
2017-Nov-14 04:26N 33°41' W 118°08'0 0.1
2017-Nov-14 03:59N 33°41' W 118°07'0 0.1
2017-Nov-14 03:29N 33°41' W 118°08'0 0.0
2017-Nov-14 02:59N 33°41' W 118°08'0 0.0
2017-Nov-14 02:26N 33°41' W 118°08'0 0.0
2017-Nov-14 01:47N 33°41' W 118°08'0 0.0
2017-Nov-14 01:29N 33°41' W 118°08'0 0.0
2017-Nov-14 00:59N 33°41' W 118°08'0 0.0
2017-Nov-14 00:29N 33°41' W 118°08'0 0.0
2017-Nov-13 23:59N 33°41' W 118°08'0 0.0
2017-Nov-13 23:29N 33°41' W 118°08'0 0.1
2017-Nov-13 23:00N 33°41' W 118°08'0 0.2
2017-Nov-13 22:30N 33°41' W 118°08'0 0.3
2017-Nov-13 22:00N 33°41' W 118°08'20710.1
2017-Nov-13 01:29N 30°23' W 116°56'510.6
2017-Nov-13 01:00N 30°18' W 116°54'510.8
2017-Nov-13 00:30N 30°13' W 116°53'510.8
2017-Nov-13 00:00N 30°08' W 116°51'711.1
2017-Nov-12 23:21N 30°01' W 116°48'411.3
2017-Nov-12 22:58N 29°57' W 116°47'611.5
2017-Nov-12 22:24N 29°51' W 116°45'711.6
2017-Nov-12 21:46N 29°43' W 116°43'1311.7
2017-Nov-12 20:37N 29°30' W 116°39'111.7
2017-Nov-12 20:31N 29°29' W 116°39'611.6
2017-Nov-12 19:58N 29°23' W 116°37'611.7
2017-Nov-12 19:29N 29°18' W 116°35'611.8
2017-Nov-12 19:00N 29°12' W 116°33'611.8
2017-Nov-12 18:29N 29°06' W 116°31'611.7
2017-Nov-12 17:56N 29°00' W 116°29'611.6
2017-Nov-12 17:27N 28°55' W 116°27'511.5
2017-Nov-12 17:00N 28°50' W 116°26'611.3
2017-Nov-12 16:30N 28°44' W 116°24'1211.7
2017-Nov-12 15:26N 28°32' W 116°20'7110.7
2017-Nov-12 08:50N 27°27' W 115°49'1510.3
2017-Nov-12 07:25N 27°14' W 115°42'410.6
2017-Nov-12 07:01N 27°10' W 115°39'610.7
2017-Nov-12 06:28N 27°05' W 115°36'510.7
2017-Nov-12 06:00N 27°01' W 115°34'6510.5
2017-Nov-11 23:50N 26°07' W 114°53'410.7
2017-Nov-11 23:30N 26°04' W 114°51'  
Track history (hours):
 
Tides and Currents Weather Stations Pressure Air Temp Water Temp Dewpoint Dewpoint Depression Visibility Wind Speed Wind Dir Waves Ship Positions

Stena Superior

Last reported at 2017-Nov-17 21:36 UTC. Time now 2017-Nov-24 22:00 UTC.
Position N 33°54' W 118°27'.

Length 273 m; draft 15.5 m.

Type: Tanker. MMSI: 310620000.

Date/timePositionNaut miles runAvg speedWind from/ knotsBaromVisibWave heightAir tempDewpointWater temp
2017-Nov-17 21:36N 33°54' W 118°27'0 0.1
2017-Nov-17 21:30N 33°54' W 118°27'1 1.5
2017-Nov-17 20:53N 33°53' W 118°27'3 1.3
2017-Nov-17 18:59N 33°52' W 118°30'0 0.0
2017-Nov-17 18:30N 33°52' W 118°30'0 0.1
2017-Nov-17 17:59N 33°52' W 118°30'0 0.1
2017-Nov-17 17:30N 33°52' W 118°30'0 0.2
2017-Nov-17 16:59N 33°52' W 118°30'2 3.9
2017-Nov-17 16:30N 33°50' W 118°30'3 6.4
2017-Nov-17 16:00N 33°47' W 118°30'4 9.0
2017-Nov-17 15:30N 33°43' W 118°28'611.1
2017-Nov-17 14:58N 33°39' W 118°23'510.9
2017-Nov-17 14:29N 33°38' W 118°16'511.0
2017-Nov-17 14:00N 33°38' W 118°10'3 6.0
2017-Nov-17 13:30N 33°41' W 118°08'0 0.0
2017-Nov-17 02:23N 33°41' W 118°08'0 0.0
2017-Nov-16 15:41N 33°41' W 118°08'0 0.0
2017-Nov-16 15:29N 33°41' W 118°08'0 0.0
2017-Nov-16 14:59N 33°41' W 118°08'0 0.1
2017-Nov-16 14:17N 33°41' W 118°08'0 0.0
2017-Nov-16 13:47N 33°41' W 118°08'0 0.0
2017-Nov-16 13:29N 33°41' W 118°08'0 0.0
2017-Nov-16 12:59N 33°41' W 118°08'0 0.0
2017-Nov-16 11:53N 33°41' W 118°08'0 0.0
2017-Nov-16 11:29N 33°41' W 118°08'0 0.0
2017-Nov-16 10:53N 33°41' W 118°08'0 0.1
2017-Nov-16 10:29N 33°41' W 118°08'0 0.0
2017-Nov-16 04:35N 33°41' W 118°08'0 0.0
2017-Nov-16 04:23N 33°41' W 118°08'0 0.0
2017-Nov-16 03:59N 33°41' W 118°08'0 0.0
2017-Nov-16 03:29N 33°41' W 118°08'0 0.0
2017-Nov-16 02:59N 33°41' W 118°08'0 0.0
2017-Nov-16 02:29N 33°41' W 118°08'0 0.0
2017-Nov-16 01:41N 33°41' W 118°08'0 0.0
2017-Nov-16 01:11N 33°41' W 118°08'0 0.0
2017-Nov-16 00:59N 33°41' W 118°08'0 0.0
2017-Nov-16 00:17N 33°41' W 118°08'0 0.0
2017-Nov-15 23:59N 33°41' W 118°08'0 0.0
2017-Nov-15 23:29N 33°41' W 118°08'0 0.0
2017-Nov-15 22:59N 33°41' W 118°08'0 0.0
2017-Nov-15 22:29N 33°41' W 118°08'0 0.0
2017-Nov-15 21:53N 33°41' W 118°08'0 0.1
2017-Nov-15 21:29N 33°41' W 118°08'0 0.0
2017-Nov-15 18:35N 33°41' W 118°08'0 0.0
2017-Nov-15 18:29N 33°41' W 118°08'0 0.0
2017-Nov-15 15:47N 33°41' W 118°08'0 0.0
2017-Nov-15 14:05N 33°41' W 118°08'0 0.1
2017-Nov-15 13:59N 33°41' W 118°08'0 0.0
2017-Nov-15 13:29N 33°41' W 118°08'0 0.0
2017-Nov-15 12:53N 33°41' W 118°08'0 0.0
2017-Nov-15 12:29N 33°41' W 118°08'0 0.0
2017-Nov-15 11:59N 33°41' W 118°08'0 0.0
2017-Nov-14 23:23N 33°41' W 118°08'0 0.0
2017-Nov-14 20:53N 33°41' W 118°08'0 0.1
2017-Nov-14 20:29N 33°41' W 118°07'0 0.0
2017-Nov-14 19:53N 33°41' W 118°07'0 0.0
2017-Nov-14 14:11N 33°41' W 118°08'0 0.1
2017-Nov-14 13:47N 33°41' W 118°08'0 0.1
2017-Nov-14 13:29N 33°41' W 118°08'0 0.0
2017-Nov-14 12:59N 33°41' W 118°08'0 0.0
2017-Nov-14 10:41N 33°41' W 118°08'0 0.0
2017-Nov-14 10:29N 33°41' W 118°08'0 0.0
2017-Nov-14 04:26N 33°41' W 118°08'0 0.1
2017-Nov-14 03:59N 33°41' W 118°07'0 0.1
2017-Nov-14 03:29N 33°41' W 118°08'0 0.0
2017-Nov-14 02:59N 33°41' W 118°08'0 0.0
2017-Nov-14 02:26N 33°41' W 118°08'0 0.0
2017-Nov-14 01:47N 33°41' W 118°08'0 0.0
2017-Nov-14 01:29N 33°41' W 118°08'0 0.0
2017-Nov-14 00:59N 33°41' W 118°08'0 0.0
2017-Nov-14 00:29N 33°41' W 118°08'0 0.0
2017-Nov-13 23:59N 33°41' W 118°08'0 0.0
2017-Nov-13 23:29N 33°41' W 118°08'0 0.1
2017-Nov-13 23:00N 33°41' W 118°08'0 0.2
2017-Nov-13 22:30N 33°41' W 118°08'0 0.3
2017-Nov-13 22:00N 33°41' W 118°08'20710.1
2017-Nov-13 01:29N 30°23' W 116°56'510.6
2017-Nov-13 01:00N 30°18' W 116°54'510.8
2017-Nov-13 00:30N 30°13' W 116°53'510.8
2017-Nov-13 00:00N 30°08' W 116°51'711.1
2017-Nov-12 23:21N 30°01' W 116°48'411.3
2017-Nov-12 22:58N 29°57' W 116°47'611.5
2017-Nov-12 22:24N 29°51' W 116°45'711.6
2017-Nov-12 21:46N 29°43' W 116°43'1311.7
2017-Nov-12 20:37N 29°30' W 116°39'111.7
2017-Nov-12 20:31N 29°29' W 116°39'611.6
2017-Nov-12 19:58N 29°23' W 116°37'611.7
2017-Nov-12 19:29N 29°18' W 116°35'611.8
2017-Nov-12 19:00N 29°12' W 116°33'611.8
2017-Nov-12 18:29N 29°06' W 116°31'611.7
2017-Nov-12 17:56N 29°00' W 116°29'611.6
2017-Nov-12 17:27N 28°55' W 116°27'511.5
2017-Nov-12 17:00N 28°50' W 116°26'611.3
2017-Nov-12 16:30N 28°44' W 116°24'1211.7
2017-Nov-12 15:26N 28°32' W 116°20'7110.7
2017-Nov-12 08:50N 27°27' W 115°49'1510.3
2017-Nov-12 07:25N 27°14' W 115°42'410.6
2017-Nov-12 07:01N 27°10' W 115°39'610.7
2017-Nov-12 06:28N 27°05' W 115°36'510.7
2017-Nov-12 06:00N 27°01' W 115°34'6510.5
2017-Nov-11 23:50N 26°07' W 114°53'410.7
2017-Nov-11 23:30N 26°04' W 114°51'  

Dump ship's entire track history